Terminal Aerodrome Forecast
Issued by NWS Cleveland, OH

Home | Current Version | Previous Version | Graphics & Text | Print | Product List | Glossary On
Versions: 1 2 3 4 5 6 7 8 9 10 11 12 13 14 15 16 17 18 19 20
000
FTUS41 KCLE 032300
TAFMFD
TAF
KMFD 032325Z 0400/0424 23020G30KT 3SM -SHRA BR OVC006
     FM040600 27009KT 2SM -SN OVC007
     FM041000 29005KT 4SM BR OVC007
     FM041600 29007KT 4SM BR OVC015
     FM042300 30008KT P6SM OVC015=

USA.gov is the U.S. government's official web portal to all federal, state and local government web resources and services.